BJL weather

Banjul International Airport
Banjul, Western Division, Gambia

Public forecast

Using degrees Celsius for public forecast. Weather courtesy of forecast.io.

Current aviation weather report (METAR) for Banjul International Airport

Retrieved 2019/10/20 20:00 UTC (2 minutes ago):

GBYD 202000Z 33004KT 9999 FEW012 FEW018CB 28/26 Q1010 CBSE

Aviation forecast (TAF) for Banjul International Airport

Retrieved 2019/10/20 18:00 UTC (2 hours ago):

TAF GBYD 201730Z 2018/2124 28008KT 9999 SCT012